EAG3211 SBCN-SBGR
Flight info
| Callsign | EAG3211 |
|---|---|
| Flight time | 0h 58m |
| Altitude | 37000 |
| Route | GUARI DCT ROBAG/N0452F380 UZ38 VUNOX |
| Aircraft | B737/M-SDE2E3FGHIRWXY/LB1 |
Departure
| Time | 2026-05-08 23:11 |
|---|---|
| Airport | Nelson Ribeiro Guimarães Airport (SBCN) |
Arrival
| Time | 2026-05-09 00:09 |
|---|---|
| Airport | São Paulo/Guarulhos–Governor André Franco Montoro International Airport (SBGR) |
| Time | Latitude | Longitude | Altitude | Speed | Heading |
|---|---|---|---|---|---|
| 2026-05-08 22:53 | -17.72582 | -48.61430 | 2310 ft | 0 kts | 336° |
| 2026-05-08 23:02 | -17.72589 | -48.61427 | 2310 ft | 4 kts | 334° |
| 2026-05-08 23:02 | -17.72611 | -48.61412 | 2314 ft | 4 kts | 307° |
| 2026-05-08 23:02 | -17.72620 | -48.61389 | 2310 ft | 4 kts | 257° |
| 2026-05-08 23:02 | -17.72616 | -48.61377 | 2310 ft | 1 kts | 246° |
| 2026-05-08 23:03 | -17.72616 | -48.61376 | 2309 ft | 1 kts | 246° |
| 2026-05-08 23:07 | -17.72619 | -48.61384 | 2310 ft | 3 kts | 246° |
| 2026-05-08 23:07 | -17.72628 | -48.61404 | 2310 ft | 3 kts | 246° |
| 2026-05-08 23:07 | -17.72650 | -48.61422 | 2311 ft | 7 kts | 188° |
| 2026-05-08 23:07 | -17.72718 | -48.61394 | 2314 ft | 15 kts | 156° |
| 2026-05-08 23:08 | -17.72823 | -48.61392 | 2317 ft | 16 kts | 232° |
| 2026-05-08 23:08 | -17.72891 | -48.61475 | 2320 ft | 15 kts | 215° |
| 2026-05-08 23:08 | -17.72876 | -48.61521 | 2319 ft | 7 kts | 40° |
| 2026-05-08 23:08 | -17.72856 | -48.61466 | 2325 ft | 10 kts | 68° |
| 2026-05-08 23:09 | -17.72843 | -48.61436 | 2316 ft | 0 kts | 66° |
| 2026-05-08 23:10 | -17.72837 | -48.61422 | 2322 ft | 21 kts | 66° |
| 2026-05-08 23:11 | -17.72633 | -48.60935 | 2297 ft | 121 kts | 66° |
| 2026-05-08 23:11 | -17.72194 | -48.59887 | 2502 ft | 181 kts | 66° |
| 2026-05-08 23:11 | -17.71741 | -48.58621 | 3631 ft | 182 kts | 70° |
| 2026-05-08 23:11 | -17.71554 | -48.57282 | 4690 ft | 203 kts | 98° |
| 2026-05-08 23:12 | -17.72278 | -48.55912 | 5057 ft | 237 kts | 139° |
| 2026-05-08 23:12 | -17.73879 | -48.55257 | 5488 ft | 261 kts | 180° |
| 2026-05-08 23:12 | -17.75673 | -48.55760 | 6032 ft | 281 kts | 213° |
| 2026-05-08 23:12 | -17.77295 | -48.56975 | 6902 ft | 290 kts | 218° |
| 2026-05-08 23:13 | -17.78947 | -48.58217 | 7922 ft | 294 kts | 216° |
| 2026-05-08 23:13 | -17.80664 | -48.59391 | 8872 ft | 300 kts | 213° |
| 2026-05-08 23:13 | -17.82469 | -48.60522 | 9827 ft | 304 kts | 211° |
| 2026-05-08 23:13 | -17.84323 | -48.61631 | 10656 ft | 313 kts | 211° |
| 2026-05-08 23:14 | -17.86312 | -48.62801 | 10937 ft | 341 kts | 209° |
| 2026-05-08 23:14 | -17.88653 | -48.63551 | 11332 ft | 363 kts | 185° |
| 2026-05-08 23:14 | -17.91179 | -48.63238 | 12141 ft | 370 kts | 162° |
| 2026-05-08 23:14 | -17.93612 | -48.62330 | 13103 ft | 372 kts | 160° |
| 2026-05-08 23:15 | -17.96045 | -48.61347 | 13914 ft | 377 kts | 159° |
| 2026-05-08 23:15 | -17.98470 | -48.60348 | 14657 ft | 382 kts | 159° |
| 2026-05-08 23:15 | -18.00964 | -48.59323 | 15384 ft | 387 kts | 159° |
| 2026-05-08 23:15 | -18.03492 | -48.58295 | 16081 ft | 393 kts | 159° |
| 2026-05-08 23:16 | -18.06061 | -48.57260 | 16779 ft | 397 kts | 159° |
| 2026-05-08 23:16 | -18.08653 | -48.56224 | 17514 ft | 400 kts | 159° |
| 2026-05-08 23:16 | -18.11268 | -48.55183 | 18163 ft | 404 kts | 159° |
| 2026-05-08 23:16 | -18.13913 | -48.54133 | 18775 ft | 408 kts | 159° |
| 2026-05-08 23:17 | -18.16588 | -48.53072 | 19372 ft | 412 kts | 159° |
| 2026-05-08 23:17 | -18.19293 | -48.51998 | 19933 ft | 417 kts | 159° |
| 2026-05-08 23:17 | -18.22023 | -48.50915 | 20494 ft | 421 kts | 159° |
| 2026-05-08 23:17 | -18.24768 | -48.49825 | 21046 ft | 424 kts | 160° |
| 2026-05-08 23:18 | -18.27539 | -48.48724 | 21554 ft | 428 kts | 160° |
| 2026-05-08 23:18 | -18.30334 | -48.47576 | 22013 ft | 433 kts | 156° |
| 2026-05-08 23:18 | -18.33029 | -48.46215 | 22431 ft | 437 kts | 153° |
| 2026-05-08 23:18 | -18.35735 | -48.44727 | 22883 ft | 441 kts | 152° |
| 2026-05-08 23:19 | -18.38448 | -48.43191 | 23348 ft | 443 kts | 152° |
| 2026-05-08 23:19 | -18.41179 | -48.41640 | 23756 ft | 447 kts | 152° |
| 2026-05-08 23:19 | -18.43011 | -48.40619 | 24016 ft | 449 kts | 152° |
| 2026-05-08 23:19 | -18.45798 | -48.39086 | 24390 ft | 453 kts | 153° |
| 2026-05-08 23:20 | -18.48599 | -48.37557 | 24801 ft | 455 kts | 153° |
| 2026-05-08 23:20 | -18.51417 | -48.36021 | 25206 ft | 457 kts | 153° |
| 2026-05-08 23:20 | -18.54256 | -48.34471 | 25592 ft | 459 kts | 153° |
| 2026-05-08 23:20 | -18.57099 | -48.32915 | 25981 ft | 461 kts | 153° |
| 2026-05-08 23:21 | -18.59955 | -48.31349 | 26352 ft | 464 kts | 154° |
| 2026-05-08 23:21 | -18.62826 | -48.29771 | 26704 ft | 466 kts | 154° |
| 2026-05-08 23:21 | -18.65675 | -48.28204 | 27050 ft | 469 kts | 154° |
| 2026-05-08 23:21 | -18.68572 | -48.26609 | 27392 ft | 471 kts | 154° |
| 2026-05-08 23:22 | -18.71488 | -48.25003 | 27728 ft | 473 kts | 154° |
| 2026-05-08 23:22 | -18.74423 | -48.23386 | 28082 ft | 475 kts | 154° |
| 2026-05-08 23:22 | -18.77359 | -48.21768 | 28386 ft | 478 kts | 154° |
| 2026-05-08 23:22 | -18.80318 | -48.20136 | 28677 ft | 480 kts | 154° |
| 2026-05-08 23:23 | -18.83283 | -48.18500 | 29006 ft | 482 kts | 155° |
| 2026-05-08 23:23 | -18.86261 | -48.16857 | 29355 ft | 483 kts | 155° |
| 2026-05-08 23:23 | -18.89246 | -48.15210 | 29653 ft | 485 kts | 155° |
| 2026-05-08 23:23 | -18.92213 | -48.13572 | 29908 ft | 488 kts | 155° |
| 2026-05-08 23:24 | -18.95270 | -48.11884 | 30179 ft | 490 kts | 155° |
| 2026-05-08 23:24 | -18.98259 | -48.10231 | 30455 ft | 492 kts | 155° |
| 2026-05-08 23:24 | -19.01295 | -48.08552 | 30772 ft | 493 kts | 155° |
| 2026-05-08 23:24 | -19.04333 | -48.06871 | 31171 ft | 492 kts | 155° |
| 2026-05-08 23:25 | -19.07351 | -48.05201 | 31614 ft | 489 kts | 155° |
| 2026-05-08 23:25 | -19.10367 | -48.03530 | 32055 ft | 488 kts | 155° |
| 2026-05-08 23:25 | -19.13374 | -48.01865 | 32455 ft | 487 kts | 155° |
| 2026-05-08 23:25 | -19.16369 | -48.00205 | 32882 ft | 486 kts | 156° |
| 2026-05-08 23:26 | -19.19354 | -47.98550 | 33322 ft | 484 kts | 156° |
| 2026-05-08 23:26 | -19.22332 | -47.96898 | 33813 ft | 480 kts | 156° |
| 2026-05-08 23:26 | -19.25285 | -47.95260 | 34212 ft | 479 kts | 156° |
| 2026-05-08 23:26 | -19.28236 | -47.93622 | 34530 ft | 479 kts | 156° |
| 2026-05-08 23:27 | -19.31188 | -47.91985 | 34815 ft | 479 kts | 156° |
| 2026-05-08 23:27 | -19.34143 | -47.90344 | 35167 ft | 478 kts | 156° |
| 2026-05-08 23:27 | -19.37088 | -47.88708 | 35534 ft | 476 kts | 156° |
| 2026-05-08 23:27 | -19.40021 | -47.87077 | 35847 ft | 476 kts | 157° |
| 2026-05-08 23:28 | -19.42955 | -47.85445 | 36120 ft | 476 kts | 157° |
| 2026-05-08 23:28 | -19.45847 | -47.83837 | 36369 ft | 476 kts | 157° |
| 2026-05-08 23:28 | -19.48776 | -47.82207 | 36629 ft | 476 kts | 157° |
| 2026-05-08 23:28 | -19.51705 | -47.80576 | 36915 ft | 475 kts | 158° |
| 2026-05-08 23:29 | -19.54626 | -47.78949 | 37108 ft | 476 kts | 158° |
| 2026-05-08 23:29 | -19.57580 | -47.77306 | 37084 ft | 480 kts | 158° |
| 2026-05-08 23:29 | -19.63483 | -47.74014 | 37076 ft | 476 kts | 158° |
| 2026-05-08 23:30 | -19.69325 | -47.70749 | 37073 ft | 472 kts | 158° |
| 2026-05-08 23:30 | -19.75115 | -47.67514 | 37075 ft | 469 kts | 158° |
| 2026-05-08 23:31 | -19.80892 | -47.64286 | 37085 ft | 469 kts | 158° |
| 2026-05-08 23:31 | -19.86648 | -47.61068 | 37082 ft | 471 kts | 158° |
| 2026-05-08 23:32 | -19.92466 | -47.57814 | 37082 ft | 473 kts | 158° |
| 2026-05-08 23:32 | -19.98313 | -47.54537 | 37077 ft | 475 kts | 158° |
| 2026-05-08 23:33 | -20.04170 | -47.51250 | 37065 ft | 476 kts | 158° |
| 2026-05-08 23:33 | -20.10009 | -47.47975 | 37082 ft | 478 kts | 158° |
| 2026-05-08 23:34 | -20.15895 | -47.44668 | 37081 ft | 479 kts | 158° |
| 2026-05-08 23:34 | -20.21801 | -47.41345 | 37076 ft | 480 kts | 158° |
| 2026-05-08 23:35 | -20.27705 | -47.38022 | 37075 ft | 480 kts | 158° |
| 2026-05-08 23:35 | -20.33617 | -47.34693 | 37065 ft | 480 kts | 158° |
| 2026-05-08 23:36 | -20.39521 | -47.31363 | 37062 ft | 479 kts | 158° |
| 2026-05-08 23:36 | -20.45377 | -47.28058 | 37064 ft | 479 kts | 158° |
| 2026-05-08 23:37 | -20.51272 | -47.24729 | 37053 ft | 479 kts | 157° |
| 2026-05-08 23:37 | -20.57166 | -47.21399 | 37057 ft | 479 kts | 157° |
| 2026-05-08 23:38 | -20.63066 | -47.18061 | 37051 ft | 479 kts | 157° |
| 2026-05-08 23:38 | -20.68960 | -47.14724 | 37048 ft | 480 kts | 157° |
| 2026-05-08 23:39 | -20.74849 | -47.11386 | 37040 ft | 479 kts | 157° |
| 2026-05-08 23:39 | -20.80706 | -47.08063 | 37042 ft | 479 kts | 157° |
| 2026-05-08 23:40 | -20.86597 | -47.04719 | 37034 ft | 479 kts | 157° |
| 2026-05-08 23:40 | -20.92498 | -47.01367 | 37042 ft | 479 kts | 157° |
| 2026-05-08 23:41 | -20.98386 | -46.98016 | 37043 ft | 479 kts | 157° |
| 2026-05-08 23:41 | -21.04283 | -46.94660 | 37031 ft | 480 kts | 157° |
| 2026-05-08 23:42 | -21.10147 | -46.91320 | 37033 ft | 480 kts | 157° |
| 2026-05-08 23:42 | -21.16087 | -46.87932 | 37025 ft | 481 kts | 157° |
| 2026-05-08 23:43 | -21.21952 | -46.84584 | 37017 ft | 481 kts | 157° |
| 2026-05-08 23:43 | -21.27859 | -46.81209 | 37021 ft | 481 kts | 157° |
| 2026-05-08 23:44 | -21.33768 | -46.77827 | 37019 ft | 481 kts | 157° |
| 2026-05-08 23:44 | -21.39679 | -46.74445 | 37016 ft | 482 kts | 157° |
| 2026-05-08 23:45 | -21.45593 | -46.71058 | 37016 ft | 482 kts | 157° |
| 2026-05-08 23:45 | -21.51511 | -46.67665 | 37022 ft | 482 kts | 157° |
| 2026-05-08 23:46 | -21.57396 | -46.64288 | 37027 ft | 482 kts | 156° |
| 2026-05-08 23:46 | -21.63353 | -46.60865 | 37026 ft | 482 kts | 156° |
| 2026-05-08 23:47 | -21.69236 | -46.57481 | 37028 ft | 482 kts | 156° |
| 2026-05-08 23:47 | -21.75152 | -46.54075 | 36682 ft | 482 kts | 156° |
| 2026-05-08 23:48 | -21.78100 | -46.52376 | 35975 ft | 480 kts | 156° |
| 2026-05-08 23:48 | -21.81052 | -46.50675 | 35166 ft | 481 kts | 156° |
| 2026-05-08 23:48 | -21.84011 | -46.48970 | 34337 ft | 483 kts | 156° |
| 2026-05-08 23:48 | -21.86976 | -46.47261 | 33468 ft | 485 kts | 156° |
| 2026-05-08 23:49 | -21.89966 | -46.45537 | 32563 ft | 488 kts | 155° |
| 2026-05-08 23:49 | -21.92972 | -46.43802 | 31558 ft | 492 kts | 155° |
| 2026-05-08 23:49 | -21.95994 | -46.42057 | 30687 ft | 493 kts | 155° |
| 2026-05-08 23:49 | -21.98997 | -46.40319 | 30031 ft | 488 kts | 155° |
| 2026-05-08 23:50 | -22.01981 | -46.38591 | 29315 ft | 485 kts | 155° |
| 2026-05-08 23:50 | -22.04941 | -46.36877 | 28611 ft | 481 kts | 154° |
| 2026-05-08 23:50 | -22.07870 | -46.35181 | 27913 ft | 477 kts | 154° |
| 2026-05-08 23:50 | -22.10783 | -46.33494 | 27203 ft | 473 kts | 154° |
| 2026-05-08 23:51 | -22.13674 | -46.31820 | 26501 ft | 469 kts | 154° |
| 2026-05-08 23:51 | -22.16544 | -46.30156 | 25795 ft | 466 kts | 154° |
| 2026-05-08 23:51 | -22.19356 | -46.28526 | 25095 ft | 462 kts | 154° |
| 2026-05-08 23:51 | -22.22176 | -46.26890 | 24397 ft | 459 kts | 153° |
| 2026-05-08 23:52 | -22.24974 | -46.25266 | 23691 ft | 456 kts | 153° |
| 2026-05-08 23:52 | -22.27759 | -46.23650 | 22992 ft | 452 kts | 153° |
| 2026-05-08 23:52 | -22.30583 | -46.22194 | 22280 ft | 446 kts | 164° |
| 2026-05-08 23:52 | -22.33595 | -46.21621 | 21679 ft | 435 kts | 182° |
| 2026-05-08 23:53 | -22.36569 | -46.21880 | 21190 ft | 424 kts | 191° |
| 2026-05-08 23:53 | -22.39471 | -46.22367 | 20673 ft | 420 kts | 192° |
| 2026-05-08 23:53 | -22.42360 | -46.22880 | 20157 ft | 418 kts | 192° |
| 2026-05-08 23:53 | -22.45231 | -46.23376 | 19643 ft | 417 kts | 191° |
| 2026-05-08 23:54 | -22.48097 | -46.23843 | 19142 ft | 416 kts | 191° |
| 2026-05-08 23:54 | -22.50956 | -46.24294 | 18627 ft | 415 kts | 191° |
| 2026-05-08 23:54 | -22.53610 | -46.24707 | 18153 ft | 413 kts | 191° |
| 2026-05-08 23:55 | -22.59209 | -46.25574 | 17624 ft | 399 kts | 190° |
| 2026-05-08 23:55 | -22.61922 | -46.25990 | 17394 ft | 400 kts | 191° |
| 2026-05-08 23:55 | -22.64699 | -46.26424 | 17178 ft | 405 kts | 191° |
| 2026-05-08 23:55 | -22.67500 | -46.26862 | 16934 ft | 406 kts | 190° |
| 2026-05-08 23:56 | -22.70286 | -46.27295 | 16690 ft | 404 kts | 190° |
| 2026-05-08 23:56 | -22.73062 | -46.27727 | 16477 ft | 401 kts | 191° |
| 2026-05-08 23:56 | -22.75820 | -46.28158 | 16248 ft | 399 kts | 191° |
| 2026-05-08 23:56 | -22.78540 | -46.28730 | 15966 ft | 397 kts | 201° |
| 2026-05-08 23:57 | -22.80996 | -46.30067 | 15606 ft | 395 kts | 213° |
| 2026-05-08 23:57 | -22.83364 | -46.31579 | 15205 ft | 394 kts | 213° |
| 2026-05-08 23:57 | -22.85722 | -46.33081 | 14796 ft | 391 kts | 213° |
| 2026-05-08 23:57 | -22.88057 | -46.34557 | 14425 ft | 387 kts | 213° |
| 2026-05-08 23:58 | -22.90371 | -46.36010 | 14043 ft | 382 kts | 213° |
| 2026-05-08 23:58 | -22.92642 | -46.37427 | 13651 ft | 379 kts | 213° |
| 2026-05-08 23:58 | -22.94926 | -46.38846 | 13277 ft | 375 kts | 213° |
| 2026-05-08 23:58 | -22.97185 | -46.40249 | 12910 ft | 372 kts | 213° |
| 2026-05-08 23:59 | -22.99419 | -46.41638 | 12546 ft | 368 kts | 213° |
| 2026-05-08 23:59 | -23.01634 | -46.43014 | 12183 ft | 366 kts | 213° |
| 2026-05-08 23:59 | -23.03840 | -46.44384 | 11829 ft | 365 kts | 213° |
| 2026-05-08 23:59 | -23.06043 | -46.45755 | 11448 ft | 365 kts | 213° |
| 2026-05-09 00:00 | -23.07478 | -46.46647 | 11217 ft | 360 kts | 213° |
| 2026-05-09 00:00 | -23.09802 | -46.48092 | 10828 ft | 350 kts | 212° |
| 2026-05-09 00:00 | -23.11887 | -46.49387 | 10481 ft | 340 kts | 213° |
| 2026-05-09 00:00 | -23.13918 | -46.50654 | 10139 ft | 333 kts | 213° |
| 2026-05-09 00:01 | -23.15875 | -46.51872 | 9977 ft | 320 kts | 213° |
| 2026-05-09 00:01 | -23.17756 | -46.53042 | 9967 ft | 303 kts | 213° |
| 2026-05-09 00:01 | -23.19564 | -46.54167 | 9661 ft | 300 kts | 213° |
| 2026-05-09 00:01 | -23.20729 | -46.54895 | 9514 ft | 296 kts | 214° |
| 2026-05-09 00:02 | -23.22450 | -46.56069 | 9265 ft | 289 kts | 217° |
| 2026-05-09 00:02 | -23.24121 | -46.57265 | 8897 ft | 288 kts | 218° |
| 2026-05-09 00:02 | -23.25789 | -46.58464 | 8507 ft | 287 kts | 217° |
| 2026-05-09 00:02 | -23.27458 | -46.59661 | 8136 ft | 287 kts | 217° |
| 2026-05-09 00:03 | -23.29114 | -46.60841 | 7819 ft | 284 kts | 217° |
| 2026-05-09 00:03 | -23.30771 | -46.62021 | 7511 ft | 282 kts | 217° |
| 2026-05-09 00:03 | -23.32406 | -46.63179 | 7274 ft | 280 kts | 217° |
| 2026-05-09 00:03 | -23.34044 | -46.64342 | 7031 ft | 281 kts | 217° |
| 2026-05-09 00:04 | -23.35681 | -46.65506 | 6811 ft | 281 kts | 217° |
| 2026-05-09 00:04 | -23.37323 | -46.66675 | 6593 ft | 282 kts | 217° |
| 2026-05-09 00:04 | -23.38930 | -46.67815 | 6361 ft | 275 kts | 217° |
| 2026-05-09 00:04 | -23.40596 | -46.68778 | 6124 ft | 271 kts | 197° |
| 2026-05-09 00:05 | -23.42454 | -46.68807 | 5964 ft | 269 kts | 167° |
| 2026-05-09 00:05 | -23.44120 | -46.67908 | 5717 ft | 269 kts | 142° |
| 2026-05-09 00:05 | -23.44984 | -46.66928 | 5515 ft | 265 kts | 128° |
| 2026-05-09 00:05 | -23.46319 | -46.64808 | 5192 ft | 246 kts | 126° |
| 2026-05-09 00:06 | -23.46934 | -46.63804 | 5001 ft | 237 kts | 126° |
| 2026-05-09 00:06 | -23.47462 | -46.61653 | 4663 ft | 221 kts | 78° |
| 2026-05-09 00:06 | -23.47131 | -46.60626 | 4549 ft | 205 kts | 69° |
| 2026-05-09 00:06 | -23.46708 | -46.59228 | 4351 ft | 183 kts | 76° |
| 2026-05-09 00:07 | -23.46378 | -46.57946 | 4194 ft | 169 kts | 75° |
| 2026-05-09 00:07 | -23.46063 | -46.56768 | 3981 ft | 156 kts | 75° |
| 2026-05-09 00:07 | -23.45765 | -46.55665 | 3811 ft | 150 kts | 74° |
| 2026-05-09 00:07 | -23.45478 | -46.54606 | 3590 ft | 144 kts | 72° |
| 2026-05-09 00:08 | -23.45192 | -46.53547 | 3413 ft | 147 kts | 70° |
| 2026-05-09 00:08 | -23.44900 | -46.52484 | 3240 ft | 145 kts | 70° |
| 2026-05-09 00:08 | -23.44626 | -46.51419 | 3005 ft | 147 kts | 72° |
| 2026-05-09 00:08 | -23.44350 | -46.50349 | 2823 ft | 145 kts | 73° |
| 2026-05-09 00:09 | -23.44059 | -46.49313 | 2613 ft | 146 kts | 71° |
| 2026-05-09 00:09 | -23.43766 | -46.48263 | 2459 ft | 142 kts | 72° |
| 2026-05-09 00:09 | -23.43528 | -46.47396 | 2467 ft | 99 kts | 74° |
| 2026-05-09 00:09 | -23.43431 | -46.47045 | 2462 ft | 18 kts | 66° |
| 2026-05-09 00:10 | -23.43356 | -46.46926 | 2466 ft | 19 kts | 49° |
| 2026-05-09 00:10 | -23.43263 | -46.46825 | 2461 ft | 19 kts | 43° |
| 2026-05-09 00:10 | -23.43170 | -46.46732 | 2461 ft | 18 kts | 38° |
| 2026-05-09 00:10 | -23.43054 | -46.46731 | 2462 ft | 17 kts | 344° |
| 2026-05-09 00:11 | -23.42941 | -46.46768 | 2467 ft | 16 kts | 344° |
| 2026-05-09 00:11 | -23.42848 | -46.46797 | 2464 ft | 13 kts | 343° |
| 2026-05-09 00:11 | -23.42775 | -46.46841 | 2460 ft | 12 kts | 291° |
| 2026-05-09 00:11 | -23.42791 | -46.46932 | 2460 ft | 13 kts | 253° |
| 2026-05-09 00:12 | -23.42817 | -46.47025 | 2460 ft | 13 kts | 253° |
| 2026-05-09 00:12 | -23.42841 | -46.47116 | 2463 ft | 14 kts | 254° |
| 2026-05-09 00:12 | -23.42868 | -46.47216 | 2460 ft | 13 kts | 253° |
| 2026-05-09 00:12 | -23.42894 | -46.47312 | 2460 ft | 14 kts | 253° |
| 2026-05-09 00:13 | -23.42923 | -46.47418 | 2460 ft | 15 kts | 253° |
| 2026-05-09 00:13 | -23.42955 | -46.47537 | 2460 ft | 17 kts | 253° |
| 2026-05-09 00:13 | -23.42991 | -46.47669 | 2462 ft | 19 kts | 253° |
| 2026-05-09 00:13 | -23.43029 | -46.47811 | 2460 ft | 19 kts | 251° |
| 2026-05-09 00:14 | -23.43060 | -46.47922 | 2460 ft | 10 kts | 256° |
| 2026-05-09 00:14 | -23.43078 | -46.47995 | 2462 ft | 7 kts | 255° |
| 2026-05-09 00:14 | -23.43092 | -46.48048 | 2460 ft | 7 kts | 254° |
| 2026-05-09 00:14 | -23.43104 | -46.48099 | 2460 ft | 7 kts | 263° |
| 2026-05-09 00:15 | -23.43075 | -46.48130 | 2460 ft | 7 kts | 353° |
| 2026-05-09 00:15 | -23.43025 | -46.48135 | 2463 ft | 8 kts | 355° |
| 2026-05-09 00:15 | -23.42968 | -46.48140 | 2460 ft | 8 kts | 354° |
| 2026-05-09 00:15 | -23.42913 | -46.48147 | 2460 ft | 8 kts | 353° |
| 2026-05-09 00:16 | -23.42859 | -46.48152 | 2460 ft | 8 kts | 355° |
| 2026-05-09 00:16 | -23.42811 | -46.48157 | 2460 ft | 7 kts | 354° |
| 2026-05-09 00:16 | -23.42794 | -46.48171 | 2460 ft | 3 kts | 262° |
| 2026-05-09 00:16 | -23.42809 | -46.48225 | 2467 ft | 7 kts | 265° |
| 2026-05-09 00:17 | -23.42810 | -46.48245 | 2464 ft | 0 kts | 266° |